sensor_id;sensor_type;location;lat;lon;timestamp;P1;durP1;ratioP1;P2;durP2;ratioP2
22017;SDS011;11173;51.050;7.108;2023-03-15T00:01:40;3.92;;;1.95;;
22017;SDS011;11173;51.050;7.108;2023-03-15T00:11:40;7.05;;;2.60;;
22017;SDS011;11173;51.050;7.108;2023-03-15T00:21:41;2.40;;;1.95;;
22017;SDS011;11173;51.050;7.108;2023-03-15T00:31:42;3.38;;;2.50;;
22017;SDS011;11173;51.050;7.108;2023-03-15T00:41:42;3.22;;;2.05;;
22017;SDS011;11173;51.050;7.108;2023-03-15T00:51:44;3.15;;;2.33;;
22017;SDS011;11173;51.050;7.108;2023-03-15T01:01:45;4.32;;;2.58;;
22017;SDS011;11173;51.050;7.108;2023-03-15T01:11:45;5.22;;;2.58;;
22017;SDS011;11173;51.050;7.108;2023-03-15T01:21:45;6.50;;;3.97;;
22017;SDS011;11173;51.050;7.108;2023-03-15T01:31:46;8.32;;;3.30;;
22017;SDS011;11173;51.050;7.108;2023-03-15T01:41:47;6.78;;;4.53;;
22017;SDS011;11173;51.050;7.108;2023-03-15T01:51:54;6.35;;;4.40;;
22017;SDS011;11173;51.050;7.108;2023-03-15T02:01:56;6.50;;;4.60;;
22017;SDS011;11173;51.050;7.108;2023-03-15T02:11:58;9.82;;;4.65;;
22017;SDS011;11173;51.050;7.108;2023-03-15T02:32:14;1.98;;;1.88;;
22017;SDS011;11173;51.050;7.108;2023-03-15T02:42:14;2.75;;;2.20;;
22017;SDS011;11173;51.050;7.108;2023-03-15T02:52:15;2.30;;;2.10;;
22017;SDS011;11173;51.050;7.108;2023-03-15T03:02:15;2.13;;;1.92;;
22017;SDS011;11173;51.050;7.108;2023-03-15T03:12:16;2.00;;;1.88;;
22017;SDS011;11173;51.050;7.108;2023-03-15T03:22:16;2.22;;;1.95;;
22017;SDS011;11173;51.050;7.108;2023-03-15T03:32:16;1.83;;;1.73;;
22017;SDS011;11173;51.050;7.108;2023-03-15T03:42:17;1.70;;;1.60;;
22017;SDS011;11173;51.050;7.108;2023-03-15T03:52:17;2.05;;;1.95;;
22017;SDS011;11173;51.050;7.108;2023-03-15T04:02:17;1.40;;;1.40;;
22017;SDS011;11173;51.050;7.108;2023-03-15T04:12:17;1.80;;;1.70;;
22017;SDS011;11173;51.050;7.108;2023-03-15T04:22:18;2.08;;;1.98;;
22017;SDS011;11173;51.050;7.108;2023-03-15T04:32:18;2.10;;;2.00;;
22017;SDS011;11173;51.050;7.108;2023-03-15T04:42:19;1.92;;;1.83;;
22017;SDS011;11173;51.050;7.108;2023-03-15T04:52:19;2.40;;;2.30;;
22017;SDS011;11173;51.050;7.108;2023-03-15T05:02:20;2.90;;;2.78;;
22017;SDS011;11173;51.050;7.108;2023-03-15T05:12:20;3.55;;;3.25;;
22017;SDS011;11173;51.050;7.108;2023-03-15T05:22:20;9.25;;;3.40;;
22017;SDS011;11173;51.050;7.108;2023-03-15T05:32:24;2.40;;;2.30;;
22017;SDS011;11173;51.050;7.108;2023-03-15T05:42:26;3.47;;;3.28;;
22017;SDS011;11173;51.050;7.108;2023-03-15T05:52:26;4.93;;;4.40;;
22017;SDS011;11173;51.050;7.108;2023-03-15T06:02:26;6.50;;;5.38;;
22017;SDS011;11173;51.050;7.108;2023-03-15T06:12:27;6.20;;;5.70;;
22017;SDS011;11173;51.050;7.108;2023-03-15T06:22:27;6.75;;;6.15;;
22017;SDS011;11173;51.050;7.108;2023-03-15T06:32:27;5.55;;;5.05;;
22017;SDS011;11173;51.050;7.108;2023-03-15T06:42:27;6.15;;;5.63;;
22017;SDS011;11173;51.050;7.108;2023-03-15T06:52:28;7.70;;;7.00;;
22017;SDS011;11173;51.050;7.108;2023-03-15T07:02:28;6.30;;;5.80;;
22017;SDS011;11173;51.050;7.108;2023-03-15T07:12:32;5.25;;;4.85;;
22017;SDS011;11173;51.050;7.108;2023-03-15T07:22:33;5.03;;;4.47;;
22017;SDS011;11173;51.050;7.108;2023-03-15T07:32:33;6.50;;;5.88;;
22017;SDS011;11173;51.050;7.108;2023-03-15T07:42:36;6.32;;;5.72;;
22017;SDS011;11173;51.050;7.108;2023-03-15T07:52:37;5.47;;;5.00;;
22017;SDS011;11173;51.050;7.108;2023-03-15T08:02:38;4.20;;;3.90;;
22017;SDS011;11173;51.050;7.108;2023-03-15T08:12:38;3.80;;;3.50;;
22017;SDS011;11173;51.050;7.108;2023-03-15T08:22:40;3.97;;;3.70;;
22017;SDS011;11173;51.050;7.108;2023-03-15T08:32:44;4.63;;;4.32;;
22017;SDS011;11173;51.050;7.108;2023-03-15T08:42:44;4.65;;;4.25;;
22017;SDS011;11173;51.050;7.108;2023-03-15T08:52:45;6.35;;;5.85;;
22017;SDS011;11173;51.050;7.108;2023-03-15T09:02:46;6.93;;;6.32;;
22017;SDS011;11173;51.050;7.108;2023-03-15T09:12:48;9.63;;;7.97;;
22017;SDS011;11173;51.050;7.108;2023-03-15T09:22:50;6.50;;;5.85;;
22017;SDS011;11173;51.050;7.108;2023-03-15T09:32:50;4.32;;;4.03;;
22017;SDS011;11173;51.050;7.108;2023-03-15T09:53:02;5.75;;;4.70;;
22017;SDS011;11173;51.050;7.108;2023-03-15T10:03:04;4.47;;;4.00;;
22017;SDS011;11173;51.050;7.108;2023-03-15T10:23:18;3.65;;;3.35;;
22017;SDS011;11173;51.050;7.108;2023-03-15T10:33:25;3.03;;;2.83;;
22017;SDS011;11173;51.050;7.108;2023-03-15T10:43:31;3.38;;;3.08;;
22017;SDS011;11173;51.050;7.108;2023-03-15T10:53:33;4.50;;;2.85;;
22017;SDS011;11173;51.050;7.108;2023-03-15T11:03:34;2.00;;;1.90;;
22017;SDS011;11173;51.050;7.108;2023-03-15T11:13:36;2.45;;;2.28;;
22017;SDS011;11173;51.050;7.108;2023-03-15T11:23:37;3.20;;;2.50;;
22017;SDS011;11173;51.050;7.108;2023-03-15T11:33:44;2.85;;;2.15;;
22017;SDS011;11173;51.050;7.108;2023-03-15T11:43:54;1.70;;;1.60;;
22017;SDS011;11173;51.050;7.108;2023-03-15T11:54:07;2.97;;;1.73;;
22017;SDS011;11173;51.050;7.108;2023-03-15T12:04:42;0.93;;;0.93;;
22017;SDS011;11173;51.050;7.108;2023-03-15T12:14:35;1.67;;;1.23;;
22017;SDS011;11173;51.050;7.108;2023-03-15T12:24:38;1.67;;;0.90;;
22017;SDS011;11173;51.050;7.108;2023-03-15T12:34:44;1.45;;;1.00;;
22017;SDS011;11173;51.050;7.108;2023-03-15T12:44:45;1.33;;;1.20;;
22017;SDS011;11173;51.050;7.108;2023-03-15T12:54:47;1.30;;;1.10;;
22017;SDS011;11173;51.050;7.108;2023-03-15T13:04:48;5.00;;;2.10;;
22017;SDS011;11173;51.050;7.108;2023-03-15T13:14:52;1.55;;;1.05;;
22017;SDS011;11173;51.050;7.108;2023-03-15T13:34:56;0.90;;;0.90;;
22017;SDS011;11173;51.050;7.108;2023-03-15T13:45:10;1.75;;;0.73;;
22017;SDS011;11173;51.050;7.108;2023-03-15T13:55:12;1.33;;;0.60;;
22017;SDS011;11173;51.050;7.108;2023-03-15T14:05:14;0.95;;;0.50;;
22017;SDS011;11173;51.050;7.108;2023-03-15T14:15:19;1.33;;;0.93;;
22017;SDS011;11173;51.050;7.108;2023-03-15T14:25:20;1.23;;;1.08;;
22017;SDS011;11173;51.050;7.108;2023-03-15T14:45:27;0.40;;;0.40;;
22017;SDS011;11173;51.050;7.108;2023-03-15T14:55:30;0.60;;;0.50;;
22017;SDS011;11173;51.050;7.108;2023-03-15T15:05:33;0.50;;;0.50;;
22017;SDS011;11173;51.050;7.108;2023-03-15T15:15:35;1.20;;;1.02;;
22017;SDS011;11173;51.050;7.108;2023-03-15T15:25:36;1.15;;;0.80;;
22017;SDS011;11173;51.050;7.108;2023-03-15T15:35:36;1.17;;;0.90;;
22017;SDS011;11173;51.050;7.108;2023-03-15T15:45:37;1.05;;;0.70;;
22017;SDS011;11173;51.050;7.108;2023-03-15T15:55:38;1.10;;;0.65;;
22017;SDS011;11173;51.050;7.108;2023-03-15T16:05:38;0.77;;;0.60;;
22017;SDS011;11173;51.050;7.108;2023-03-15T16:15:38;0.60;;;0.60;;
22017;SDS011;11173;51.050;7.108;2023-03-15T16:25:38;0.35;;;0.35;;
22017;SDS011;11173;51.050;7.108;2023-03-15T16:35:39;0.30;;;0.30;;
22017;SDS011;11173;51.050;7.108;2023-03-15T16:45:39;0.30;;;0.30;;
22017;SDS011;11173;51.050;7.108;2023-03-15T16:55:40;0.30;;;0.30;;
22017;SDS011;11173;51.050;7.108;2023-03-15T17:05:40;1.48;;;0.40;;
22017;SDS011;11173;51.050;7.108;2023-03-15T17:15:41;0.50;;;0.50;;
22017;SDS011;11173;51.050;7.108;2023-03-15T17:25:42;0.80;;;0.80;;
22017;SDS011;11173;51.050;7.108;2023-03-15T17:35:43;0.80;;;0.80;;
22017;SDS011;11173;51.050;7.108;2023-03-15T17:45:46;0.80;;;0.80;;
22017;SDS011;11173;51.050;7.108;2023-03-15T17:55:46;1.30;;;1.20;;
22017;SDS011;11173;51.050;7.108;2023-03-15T18:05:47;2.55;;;1.77;;
22017;SDS011;11173;51.050;7.108;2023-03-15T18:15:47;1.60;;;1.50;;
22017;SDS011;11173;51.050;7.108;2023-03-15T18:25:50;3.55;;;1.60;;
22017;SDS011;11173;51.050;7.108;2023-03-15T18:35:51;2.05;;;1.83;;
22017;SDS011;11173;51.050;7.108;2023-03-15T18:45:52;3.83;;;1.98;;
22017;SDS011;11173;51.050;7.108;2023-03-15T18:55:52;1.83;;;1.73;;
22017;SDS011;11173;51.050;7.108;2023-03-15T19:05:53;1.70;;;1.60;;
22017;SDS011;11173;51.050;7.108;2023-03-15T19:15:53;2.85;;;2.20;;
22017;SDS011;11173;51.050;7.108;2023-03-15T19:25:54;1.80;;;1.70;;
22017;SDS011;11173;51.050;7.108;2023-03-15T19:35:55;1.77;;;1.67;;
22017;SDS011;11173;51.050;7.108;2023-03-15T19:45:55;1.70;;;1.60;;
22017;SDS011;11173;51.050;7.108;2023-03-15T19:55:55;2.58;;;1.77;;
22017;SDS011;11173;51.050;7.108;2023-03-15T20:05:56;2.30;;;2.00;;
22017;SDS011;11173;51.050;7.108;2023-03-15T20:16:05;2.20;;;2.10;;
22017;SDS011;11173;51.050;7.108;2023-03-15T20:26:06;2.25;;;2.15;;
22017;SDS011;11173;51.050;7.108;2023-03-15T20:36:09;2.40;;;2.20;;
22017;SDS011;11173;51.050;7.108;2023-03-15T20:46:10;2.50;;;2.30;;
22017;SDS011;11173;51.050;7.108;2023-03-15T20:56:12;2.20;;;2.10;;
22017;SDS011;11173;51.050;7.108;2023-03-15T21:06:13;3.28;;;2.78;;
22017;SDS011;11173;51.050;7.108;2023-03-15T21:16:13;2.92;;;2.65;;
22017;SDS011;11173;51.050;7.108;2023-03-15T21:26:13;4.15;;;2.65;;
22017;SDS011;11173;51.050;7.108;2023-03-15T21:36:14;3.38;;;2.55;;
22017;SDS011;11173;51.050;7.108;2023-03-15T21:46:14;3.13;;;2.83;;
22017;SDS011;11173;51.050;7.108;2023-03-15T21:56:15;3.00;;;2.80;;
22017;SDS011;11173;51.050;7.108;2023-03-15T22:06:15;4.00;;;3.25;;
22017;SDS011;11173;51.050;7.108;2023-03-15T22:16:15;3.58;;;3.20;;
22017;SDS011;11173;51.050;7.108;2023-03-15T22:26:16;3.97;;;3.55;;
22017;SDS011;11173;51.050;7.108;2023-03-15T22:36:16;3.38;;;3.08;;
22017;SDS011;11173;51.050;7.108;2023-03-15T22:46:17;3.30;;;3.03;;
22017;SDS011;11173;51.050;7.108;2023-03-15T22:56:17;4.50;;;3.47;;
22017;SDS011;11173;51.050;7.108;2023-03-15T23:06:18;5.30;;;3.95;;
22017;SDS011;11173;51.050;7.108;2023-03-15T23:16:18;3.03;;;2.83;;
22017;SDS011;11173;51.050;7.108;2023-03-15T23:26:18;3.30;;;3.00;;
22017;SDS011;11173;51.050;7.108;2023-03-15T23:36:19;5.05;;;2.72;;
22017;SDS011;11173;51.050;7.108;2023-03-15T23:46:20;3.50;;;3.20;;
22017;SDS011;11173;51.050;7.108;2023-03-15T23:56:22;2.75;;;2.53;;
